Time;durP1;ratioP1;P1;durP2;ratioP2;P2;SDS_P1;SDS_P2;PMS_P1;PMS_P2;Temp;Humidity;BMP_temperature;BMP_pressure;BME280_temperature;BME280_humidity;BME280_pressure;Samples;Min_cycle;Max_cycle;Signal;HPM_P1;HPM_P2
2022/11/30 00:03:24;;;;;;;53.03;21.90;;;;;;;7.19;100.00;100718.88;21051930;28;20074;-74
2022/11/30 00:13:25;;;;;;;57.38;20.63;;;;;;;7.07;100.00;100727.50;21064428;28;20057;-73
2022/11/30 00:23:26;;;;;;;54.40;20.38;;;;;;;6.90;100.00;100719.63;21049533;28;20048;-74
2022/11/30 00:33:28;;;;;;;49.75;19.10;;;;;;;6.86;100.00;100720.47;21066449;28;20064;-72
2022/11/30 00:43:29;;;;;;;54.40;21.85;;;;;;;6.76;100.00;100716.09;21066254;28;20543;-72
2022/11/30 00:53:30;;;;;;;62.95;22.02;;;;;;;6.69;100.00;100730.78;21065194;28;20060;-73
2022/11/30 01:03:32;;;;;;;66.70;23.65;;;;;;;6.67;100.00;100732.53;21063854;28;20105;-73
2022/11/30 01:13:33;;;;;;;70.90;23.73;;;;;;;6.59;100.00;100738.53;21063921;28;20060;-74
2022/11/30 01:23:35;;;;;;;70.05;24.92;;;;;;;6.57;100.00;100738.53;21063279;28;20055;-72
2022/11/30 01:33:36;;;;;;;67.93;23.85;;;;;;;6.52;100.00;100744.56;21062103;28;20192;-70
2022/11/30 01:43:37;;;;;;;66.70;23.75;;;;;;;6.43;100.00;100748.84;21061688;28;20052;-72
2022/11/30 01:53:39;;;;;;;69.57;23.75;;;;;;;6.48;100.00;100748.00;21061183;28;20469;-72
2022/11/30 02:03:40;;;;;;;67.15;22.05;;;;;;;6.43;100.00;100751.44;21059383;28;20051;-72
2022/11/30 02:13:41;;;;;;;81.03;24.38;;;;;;;6.39;100.00;100748.81;21055521;28;20056;-72
2022/11/30 02:23:43;;;;;;;73.78;23.88;;;;;;;6.46;100.00;100752.31;21058302;28;20047;-72
2022/11/30 02:33:44;;;;;;;77.38;25.83;;;;;;;6.45;100.00;100753.19;21054137;28;20058;-72
2022/11/30 02:43:45;;;;;;;83.70;25.92;;;;;;;6.39;100.00;100752.28;21057691;28;20051;-74
2022/11/30 02:53:46;;;;;;;78.70;26.33;;;;;;;6.38;100.00;100750.56;21056813;28;20397;-72
2022/11/30 03:03:48;;;;;;;83.55;26.35;;;;;;;6.49;100.00;100752.34;21055277;28;20044;-72
2022/11/30 03:13:49;;;;;;;82.18;26.63;;;;;;;6.43;100.00;100754.06;21055860;28;20052;-72
2022/11/30 03:23:50;;;;;;;78.70;26.58;;;;;;;6.48;100.00;100761.03;21054998;28;20117;-72
2022/11/30 03:33:52;;;;;;;84.72;26.73;;;;;;;6.57;100.00;100763.69;21054453;28;20121;-72
2022/11/30 03:43:53;;;;;;;91.05;27.30;;;;;;;6.45;100.00;100764.47;21060877;28;20048;-71
2022/11/30 03:53:54;;;;;;;80.40;26.27;;;;;;;6.43;100.00;100759.25;21070635;28;20055;-72
2022/11/30 04:03:55;;;;;;;80.72;26.00;;;;;;;6.47;100.00;100762.75;21069414;28;20536;-72
2022/11/30 04:13:57;;;;;;;92.68;27.20;;;;;;;6.43;100.00;100766.19;21069286;28;20052;-72
2022/11/30 04:23:58;;;;;;;93.82;28.23;;;;;;;6.34;100.00;100769.59;21068735;28;20118;-72
2022/11/30 04:33:59;;;;;;;90.15;28.45;;;;;;;6.45;100.00;100761.00;21067103;28;20082;-72
2022/11/30 04:44:01;;;;;;;98.70;28.35;;;;;;;6.42;100.00;100772.25;21066757;28;20051;-72
2022/11/30 04:54:02;;;;;;;105.50;29.67;;;;;;;6.41;100.00;100768.75;21065611;28;20060;-73
2022/11/30 05:04:03;;;;;;;91.97;30.35;;;;;;;6.35;100.00;100773.94;21064956;28;20067;-74
2022/11/30 05:14:05;;;;;;;104.40;31.40;;;;;;;6.30;100.00;100774.75;21064492;28;20048;-73
2022/11/30 05:24:06;;;;;;;112.93;32.03;;;;;;;6.43;100.00;100774.88;21063809;28;20044;-73
2022/11/30 05:34:07;;;;;;;98.38;31.88;;;;;;;6.41;100.00;100786.97;21062463;28;20044;-73
2022/11/30 05:44:08;;;;;;;107.78;31.63;;;;;;;6.43;100.00;100785.25;21062114;28;20043;-73
2022/11/30 05:54:10;;;;;;;96.28;31.25;;;;;;;6.40;100.00;100795.63;21061080;28;20056;-71
2022/11/30 06:04:11;;;;;;;91.60;29.80;;;;;;;6.39;100.00;100799.09;21059910;28;20052;-72
2022/11/30 06:14:12;;;;;;;113.38;32.45;;;;;;;6.39;100.00;100786.09;21060475;28;20052;-72
2022/11/30 06:24:14;;;;;;;107.93;30.85;;;;;;;6.44;100.00;100796.53;21059495;28;20116;-72
2022/11/30 06:34:15;;;;;;;110.60;31.30;;;;;;;6.40;100.00;100787.84;21058659;28;20052;-71
2022/11/30 06:44:16;;;;;;;111.15;32.65;;;;;;;6.40;100.00;100795.63;21057319;28;20052;-72
2022/11/30 06:54:17;;;;;;;118.20;32.42;;;;;;;6.38;100.00;100797.38;21056843;28;20052;-72
2022/11/30 07:04:19;;;;;;;127.85;33.88;;;;;;;6.42;100.00;100793.94;21055055;28;20043;-72
2022/11/30 07:14:21;;;;;;;125.20;33.35;;;;;;;6.42;100.00;100801.75;21053713;28;20066;-73
2022/11/30 07:34:42;;;;;;;118.82;32.50;;;;;;;6.49;100.00;100814.78;21053324;28;20059;-72
2022/11/30 07:44:43;;;;;;;114.25;31.55;;;;;;;6.57;100.00;100813.13;21052633;28;20052;-72
2022/11/30 07:54:45;;;;;;;105.40;30.30;;;;;;;6.56;100.00;100827.81;21053938;28;20075;-72
2022/11/30 08:04:47;;;;;;;113.13;33.28;;;;;;;6.58;100.00;100823.53;21051137;28;20048;-71
2022/11/30 08:14:49;;;;;;;103.10;30.67;;;;;;;6.67;100.00;100835.72;21049310;28;20561;-72
2022/11/30 08:25:10;;;;;;;108.68;31.98;;;;;;;6.79;100.00;100830.59;21050000;28;20102;-71
2022/11/30 08:35:11;;;;;;;102.75;34.20;;;;;;;6.78;100.00;100833.19;21061173;28;20040;-72
2022/11/30 08:45:12;;;;;;;84.13;28.42;;;;;;;6.81;100.00;100834.09;21063758;28;20070;-71
2022/11/30 08:55:14;;;;;;;78.68;26.65;;;;;;;6.96;100.00;100848.94;21064092;28;20505;-73
2022/11/30 09:05:15;;;;;;;70.32;26.88;;;;;;;6.98;100.00;100861.94;21062228;28;20067;-73
2022/11/30 09:15:16;;;;;;;48.97;22.45;;;;;;;6.98;100.00;100865.44;21062785;28;20087;-73
2022/11/30 09:25:17;;;;;;;41.80;23.13;;;;;;;6.99;100.00;100879.31;21062148;28;20098;-73
2022/11/30 09:35:19;;;;;;;34.03;18.42;;;;;;;6.97;100.00;100881.03;21061677;28;20101;-73
2022/11/30 09:45:20;;;;;;;31.83;17.15;;;;;;;7.09;100.00;100888.91;21062044;28;20040;-76
2022/11/30 09:55:21;;;;;;;26.40;15.48;;;;;;;7.05;100.00;100879.38;21061651;28;20103;-74
2022/11/30 10:05:22;;;;;;;27.38;15.75;;;;;;;7.17;100.00;100882.91;21039793;28;20545;-76
2022/11/30 10:15:24;;;;;;;31.35;15.88;;;;;;;7.35;100.00;100878.66;21059223;28;20056;-74
2022/11/30 10:25:25;;;;;;;27.27;15.55;;;;;;;7.51;100.00;100869.19;21056249;28;20416;-74
2022/11/30 10:35:28;;;;;;;28.80;15.38;;;;;;;7.35;100.00;100863.91;21056004;28;20056;-74
2022/11/30 10:45:31;;;;;;;;;;;;;;;7.53;100.00;100854.44;21058717;28;20143;-73
2022/11/30 10:55:32;;;;;;;29.77;15.98;;;;;;;7.59;100.00;100846.63;21056851;28;19978;-73
2022/11/30 11:05:34;;;;;;;25.17;15.18;;;;;;;7.72;100.00;100840.59;21056036;28;20120;-74
2022/11/30 11:15:35;;;;;;;25.25;14.52;;;;;;;7.92;100.00;100825.00;21056170;28;20125;-75
2022/11/30 11:25:41;;;;;;;26.08;14.63;;;;;;;7.92;100.00;100818.06;21055227;28;20040;-74
2022/11/30 11:35:44;;;;;;;24.88;13.70;;;;;;;7.94;100.00;100821.53;21054914;28;20048;-74
2022/11/30 11:45:45;;;;;;;26.63;15.40;;;;;;;8.08;100.00;100829.38;21053770;28;20044;-73
2022/11/30 11:55:47;;;;;;;27.77;15.20;;;;;;;8.28;100.00;100834.59;21052440;28;20048;-74
2022/11/30 12:05:48;;;;;;;27.33;15.10;;;;;;;8.49;100.00;100831.19;21060774;28;20072;-75
2022/11/30 12:15:49;;;;;;;27.85;15.57;;;;;;;8.37;100.00;100821.59;21068945;28;20052;-74
2022/11/30 12:25:51;;;;;;;25.88;14.80;;;;;;;8.49;100.00;100825.97;21068989;28;20052;-74
2022/11/30 12:35:52;;;;;;;26.85;14.90;;;;;;;8.50;100.00;100824.22;21067150;28;20121;-73
2022/11/30 12:45:53;;;;;;;30.65;16.50;;;;;;;8.39;100.00;100830.31;21067460;28;20531;-76
2022/11/30 12:55:54;;;;;;;25.77;15.45;;;;;;;8.30;100.00;100824.19;21065923;28;20314;-73
2022/11/30 13:05:56;;;;;;;25.35;14.55;;;;;;;8.21;100.00;100838.09;21064099;28;20052;-73
2022/11/30 13:15:58;;;;;;;28.35;15.80;;;;;;;8.16;100.00;100840.69;21062651;28;20101;-74
2022/11/30 13:25:59;;;;;;;24.33;13.90;;;;;;;8.05;100.00;100841.53;21063787;28;20055;-73
2022/11/30 13:36:08;;;;;;;24.08;13.68;;;;;;;7.99;100.00;100826.75;21062549;28;20052;-75
2022/11/30 13:46:11;;;;;;;27.05;15.52;;;;;;;8.06;100.00;100831.13;21062683;28;20431;-74
2022/11/30 13:56:12;;;;;;;24.55;14.25;;;;;;;8.09;100.00;100827.63;21061795;28;20052;-74
2022/11/30 14:06:13;;;;;;;22.83;13.07;;;;;;;7.91;100.00;100818.94;21061165;28;20173;-75
2022/11/30 14:16:14;;;;;;;22.73;13.77;;;;;;;8.07;100.00;100834.59;21058476;28;20450;-74
2022/11/30 14:26:16;;;;;;;23.77;13.82;;;;;;;8.00;100.00;100838.94;21058821;28;20052;-75
2022/11/30 14:36:17;;;;;;;25.02;13.88;;;;;;;7.92;100.00;100845.88;21059442;28;20059;-74
2022/11/30 14:46:18;;;;;;;25.58;14.65;;;;;;;7.81;100.00;100839.75;21058831;28;20055;-70
2022/11/30 14:56:20;;;;;;;25.40;14.65;;;;;;;7.70;100.00;100842.31;21056991;28;20113;-73
2022/11/30 15:06:21;;;;;;;23.75;13.00;;;;;;;7.69;100.00;100843.19;21055184;28;20466;-74
2022/11/30 15:16:22;;;;;;;29.30;17.17;;;;;;;7.66;100.00;100837.97;21049667;28;20209;-72
2022/11/30 15:26:24;;;;;;;31.67;17.42;;;;;;;7.64;100.00;100837.09;21051244;28;20056;-73
2022/11/30 15:36:26;;;;;;;31.38;17.25;;;;;;;7.62;100.00;100844.06;21052310;28;20530;-72
2022/11/30 15:46:34;;;;;;;31.58;18.52;;;;;;;7.61;100.00;100850.09;21068988;28;20109;-75
2022/11/30 15:56:38;;;;;;;;;;;;;;;7.64;100.00;100861.41;21066151;28;20052;-75
2022/11/30 16:06:40;;;;;;;29.45;16.73;;;;;;;7.60;100.00;100857.06;21068550;28;19965;-72
2022/11/30 16:16:41;;;;;;;30.90;16.23;;;;;;;7.59;100.00;100870.09;21069979;28;20094;-71
2022/11/30 16:26:42;;;;;;;32.97;18.65;;;;;;;7.55;100.00;100868.34;21069469;28;20083;-73
2022/11/30 16:36:51;;;;;;;32.33;19.92;;;;;;;7.50;100.00;100877.88;21064911;28;20052;-73
2022/11/30 16:46:52;;;;;;;31.60;17.17;;;;;;;7.43;100.00;100883.06;21070478;28;20117;-75
2022/11/30 16:56:54;;;;;;;31.63;18.05;;;;;;;7.40;100.00;100896.06;21067154;28;20500;-73
2022/11/30 17:06:55;;;;;;;37.10;20.33;;;;;;;7.43;100.00;100892.63;21065999;28;20074;-72
2022/11/30 17:17:03;;;;;;;45.67;23.52;;;;;;;7.43;100.00;100903.91;21065527;28;20097;-72
2022/11/30 17:27:04;;;;;;;43.40;21.92;;;;;;;7.43;100.00;100916.94;21065249;28;20070;-73
2022/11/30 17:37:05;;;;;;;48.47;22.85;;;;;;;7.29;100.00;100915.97;21063022;28;20102;-73
2022/11/30 17:47:07;;;;;;;47.35;25.15;;;;;;;7.26;100.00;100910.75;21063313;28;20105;-72
2022/11/30 17:57:08;;;;;;;35.03;18.95;;;;;;;7.17;100.00;100926.31;21062656;28;20117;-80
2022/11/30 18:07:09;;;;;;;38.63;19.63;;;;;;;7.06;100.00;100925.38;21061631;28;20051;-76
2022/11/30 18:17:10;;;;;;;41.40;20.90;;;;;;;7.14;100.00;100926.31;21061072;28;20158;-74
2022/11/30 18:27:12;;;;;;;36.13;18.90;;;;;;;7.05;100.00;100944.47;21057780;28;20044;-70
2022/11/30 18:37:13;;;;;;;30.92;17.60;;;;;;;7.01;100.00;100945.28;21055238;28;20048;-70
2022/11/30 18:47:14;;;;;;;40.70;21.02;;;;;;;7.00;100.00;100940.97;21054728;28;20496;-70
2022/11/30 18:57:16;;;;;;;31.65;15.95;;;;;;;6.97;100.00;100949.59;21054146;28;20048;-70
2022/11/30 19:07:17;;;;;;;35.17;18.20;;;;;;;6.96;100.00;100952.19;21052976;28;20101;-70
2022/11/30 19:17:18;;;;;;;35.95;18.95;;;;;;;6.91;100.00;100947.81;21052130;28;20045;-70
2022/11/30 19:27:20;;;;;;;27.58;14.55;;;;;;;6.89;100.00;100952.13;21051854;28;20086;-70
2022/11/30 19:37:21;;;;;;;25.38;14.02;;;;;;;6.86;100.00;100957.34;21050391;28;20052;-70
2022/11/30 19:47:22;;;;;;;22.17;11.13;;;;;;;6.81;100.00;100966.84;21051872;28;20557;-69
2022/11/30 19:57:23;;;;;;;20.92;10.38;;;;;;;6.82;100.00;100976.38;21045845;28;20177;-70
2022/11/30 20:07:25;;;;;;;15.45;8.82;;;;;;;6.74;100.00;100988.44;21049536;28;20534;-70
2022/11/30 20:17:26;;;;;;;17.27;8.50;;;;;;;6.59;100.00;101007.38;21048482;28;20051;-69
2022/11/30 20:27:28;;;;;;;22.55;11.25;;;;;;;6.29;100.00;101020.94;21057170;28;20060;-69
2022/11/30 20:37:29;;;;;;;23.58;11.13;;;;;;;6.26;100.00;101015.69;21063009;28;20083;-69
2022/11/30 20:47:33;;;;;;;19.10;9.80;;;;;;;6.08;100.00;101026.72;21063568;28;20056;-69
2022/11/30 20:57:35;;;;;;;18.08;8.25;;;;;;;6.02;100.00;101041.38;21060889;28;20408;-69
2022/11/30 21:07:36;;;;;;;22.10;10.52;;;;;;;5.78;100.00;101031.50;21059021;28;20055;-69
2022/11/30 21:17:37;;;;;;;19.52;9.90;;;;;;;5.54;100.00;101037.22;21059887;28;20081;-69
2022/11/30 21:27:39;;;;;;;23.67;10.07;;;;;;;5.54;100.00;101042.41;21059911;28;20072;-70
2022/11/30 21:37:40;;;;;;;20.25;9.73;;;;;;;5.64;100.00;101044.28;21059275;28;20052;-70
2022/11/30 21:47:41;;;;;;;19.70;9.00;;;;;;;5.69;100.00;101047.81;21059990;28;20041;-70
2022/11/30 21:57:42;;;;;;;13.05;6.15;;;;;;;5.58;100.00;101028.63;21058574;28;20168;-70
2022/11/30 22:07:44;;;;;;;11.75;5.53;;;;;;;5.62;100.00;101025.22;21057744;28;20079;-68
2022/11/30 22:17:45;;;;;;;10.18;4.35;;;;;;;5.64;100.00;101024.38;21051293;28;20048;-69
2022/11/30 22:27:46;;;;;;;11.85;4.70;;;;;;;5.62;100.00;101036.47;21055798;28;20087;-69
2022/11/30 22:37:48;;;;;;;10.73;5.18;;;;;;;5.57;100.00;101032.94;21052931;28;20393;-69
2022/11/30 22:47:49;;;;;;;15.85;6.10;;;;;;;5.48;100.00;101044.91;21047335;28;20397;-68
2022/11/30 22:57:50;;;;;;;16.25;7.47;;;;;;;5.42;100.00;101042.25;21052891;28;20610;-70
2022/11/30 23:07:52;;;;;;;17.13;7.72;;;;;;;5.31;100.00;101050.72;21055414;28;20052;-68
2022/11/30 23:17:53;;;;;;;20.85;9.18;;;;;;;5.25;100.00;101054.94;21056789;28;20056;-69
2022/11/30 23:27:54;;;;;;;17.20;8.57;;;;;;;5.19;100.00;101044.47;21055822;28;20052;-69
2022/11/30 23:37:55;;;;;;;19.42;8.73;;;;;;;5.25;100.00;101035.03;21053229;28;20048;-69
2022/11/30 23:47:57;;;;;;;20.45;9.68;;;;;;;5.18;100.00;101020.22;21055408;28;20048;-71
2022/11/30 23:57:58;;;;;;;21.05;9.73;;;;;;;5.13;100.00;101025.34;21056755;28;20492;-72
